sensor_id;sensor_type;location;lat;lon;timestamp;temperature;humidity
22426;DHT22;11380;50.822;15.790;2022-08-16T00:02:52;17.50;1.00
22426;DHT22;11380;50.822;15.790;2022-08-16T00:07:59;17.10;17.20
22426;DHT22;11380;50.822;15.790;2022-08-16T00:13:08;16.90;99.90
22426;DHT22;11380;50.822;15.790;2022-08-16T00:18:16;16.70;99.90
22426;DHT22;11380;50.822;15.790;2022-08-16T00:23:24;16.60;99.90
22426;DHT22;11380;50.822;15.790;2022-08-16T00:28:31;16.80;52.90
22426;DHT22;11380;50.822;15.790;2022-08-16T00:33:37;16.80;13.60
22426;DHT22;11380;50.822;15.790;2022-08-16T00:38:43;16.80;18.80
22426;DHT22;11380;50.822;15.790;2022-08-16T00:43:48;16.70;1.00
22426;DHT22;11380;50.822;15.790;2022-08-16T00:48:56;16.80;1.00
22426;DHT22;11380;50.822;15.790;2022-08-16T00:54:03;16.50;1.00
22426;DHT22;11380;50.822;15.790;2022-08-16T00:59:11;16.40;12.10
22426;DHT22;11380;50.822;15.790;2022-08-16T01:04:21;16.50;2.20
22426;DHT22;11380;50.822;15.790;2022-08-16T01:09:31;16.40;1.00
22426;DHT22;11380;50.822;15.790;2022-08-16T01:14:43;15.80;99.90
22426;DHT22;11380;50.822;15.790;2022-08-16T01:19:53;15.90;47.50
22426;DHT22;11380;50.822;15.790;2022-08-16T01:25:04;15.80;99.90
22426;DHT22;11380;50.822;15.790;2022-08-16T01:35:25;15.90;99.90
22426;DHT22;11380;50.822;15.790;2022-08-16T01:40:30;15.80;45.80
22426;DHT22;11380;50.822;15.790;2022-08-16T01:45:37;15.70;99.90
22426;DHT22;11380;50.822;15.790;2022-08-16T01:50:44;15.50;90.30
22426;DHT22;11380;50.822;15.790;2022-08-16T01:55:52;15.30;99.90
22426;DHT22;11380;50.822;15.790;2022-08-16T02:00:59;15.60;99.90
22426;DHT22;11380;50.822;15.790;2022-08-16T02:06:05;15.70;99.90
22426;DHT22;11380;50.822;15.790;2022-08-16T02:11:12;15.70;99.90
22426;DHT22;11380;50.822;15.790;2022-08-16T02:16:18;15.30;99.70
22426;DHT22;11380;50.822;15.790;2022-08-16T02:21:23;15.40;99.90
22426;DHT22;11380;50.822;15.790;2022-08-16T02:26:31;14.90;99.90
22426;DHT22;11380;50.822;15.790;2022-08-16T02:31:37;14.70;99.90
22426;DHT22;11380;50.822;15.790;2022-08-16T02:36:44;14.80;99.90
22426;DHT22;11380;50.822;15.790;2022-08-16T02:41:52;14.90;99.90
22426;DHT22;11380;50.822;15.790;2022-08-16T02:46:57;14.80;99.90
22426;DHT22;11380;50.822;15.790;2022-08-16T02:52:04;14.90;99.90
22426;DHT22;11380;50.822;15.790;2022-08-16T02:57:12;14.90;99.90
22426;DHT22;11380;50.822;15.790;2022-08-16T03:02:17;14.70;99.90
22426;DHT22;11380;50.822;15.790;2022-08-16T03:07:26;14.90;99.90
22426;DHT22;11380;50.822;15.790;2022-08-16T03:12:31;14.90;99.90
22426;DHT22;11380;50.822;15.790;2022-08-16T03:17:38;15.10;99.90
22426;DHT22;11380;50.822;15.790;2022-08-16T03:22:45;15.00;99.90
22426;DHT22;11380;50.822;15.790;2022-08-16T03:27:51;14.90;99.90
22426;DHT22;11380;50.822;15.790;2022-08-16T03:32:57;14.50;99.90
22426;DHT22;11380;50.822;15.790;2022-08-16T03:38:05;14.40;99.90
22426;DHT22;11380;50.822;15.790;2022-08-16T03:43:13;14.70;99.90
22426;DHT22;11380;50.822;15.790;2022-08-16T03:48:23;14.80;99.90
22426;DHT22;11380;50.822;15.790;2022-08-16T03:53:31;14.80;99.90
22426;DHT22;11380;50.822;15.790;2022-08-16T03:58:38;14.90;99.90
22426;DHT22;11380;50.822;15.790;2022-08-16T04:03:45;14.90;99.90
22426;DHT22;11380;50.822;15.790;2022-08-16T04:08:51;14.90;99.90
22426;DHT22;11380;50.822;15.790;2022-08-16T04:13:58;14.70;99.90
22426;DHT22;11380;50.822;15.790;2022-08-16T04:19:04;14.70;99.90
22426;DHT22;11380;50.822;15.790;2022-08-16T04:24:10;14.90;99.90
22426;DHT22;11380;50.822;15.790;2022-08-16T04:29:16;15.30;99.90
22426;DHT22;11380;50.822;15.790;2022-08-16T04:34:27;15.10;99.90
22426;DHT22;11380;50.822;15.790;2022-08-16T04:39:34;15.50;99.90
22426;DHT22;11380;50.822;15.790;2022-08-16T04:44:42;15.20;99.90
22426;DHT22;11380;50.822;15.790;2022-08-16T04:49:49;15.60;99.90
22426;DHT22;11380;50.822;15.790;2022-08-16T04:54:55;15.60;99.90
22426;DHT22;11380;50.822;15.790;2022-08-16T05:00:00;15.50;99.90
22426;DHT22;11380;50.822;15.790;2022-08-16T05:05:09;15.80;99.90
22426;DHT22;11380;50.822;15.790;2022-08-16T05:10:16;16.40;99.90
22426;DHT22;11380;50.822;15.790;2022-08-16T05:15:23;16.80;99.90
22426;DHT22;11380;50.822;15.790;2022-08-16T05:20:30;17.00;99.90
22426;DHT22;11380;50.822;15.790;2022-08-16T05:25:37;17.20;99.90
22426;DHT22;11380;50.822;15.790;2022-08-16T05:30:46;17.50;99.90
22426;DHT22;11380;50.822;15.790;2022-08-16T05:35:53;18.00;99.90
22426;DHT22;11380;50.822;15.790;2022-08-16T05:41:01;18.30;99.90
22426;DHT22;11380;50.822;15.790;2022-08-16T05:46:07;18.60;41.00
22426;DHT22;11380;50.822;15.790;2022-08-16T05:51:14;18.90;1.00
22426;DHT22;11380;50.822;15.790;2022-08-16T05:56:21;19.30;1.00
22426;DHT22;11380;50.822;15.790;2022-08-16T06:01:26;19.70;1.00
22426;DHT22;11380;50.822;15.790;2022-08-16T06:06:34;20.10;1.00
22426;DHT22;11380;50.822;15.790;2022-08-16T06:11:41;20.50;1.00
22426;DHT22;11380;50.822;15.790;2022-08-16T06:16:46;20.90;1.00
22426;DHT22;11380;50.822;15.790;2022-08-16T06:21:54;21.10;1.00
22426;DHT22;11380;50.822;15.790;2022-08-16T06:26:59;21.50;1.00
22426;DHT22;11380;50.822;15.790;2022-08-16T06:32:05;21.80;1.00
22426;DHT22;11380;50.822;15.790;2022-08-16T06:37:12;22.10;1.00
22426;DHT22;11380;50.822;15.790;2022-08-16T06:42:18;22.10;18.00
22426;DHT22;11380;50.822;15.790;2022-08-16T06:47:24;22.30;1.00
22426;DHT22;11380;50.822;15.790;2022-08-16T06:52:31;22.10;1.00
22426;DHT22;11380;50.822;15.790;2022-08-16T06:57:41;22.20;1.00
22426;DHT22;11380;50.822;15.790;2022-08-16T07:02:49;23.00;1.00
22426;DHT22;11380;50.822;15.790;2022-08-16T07:07:58;23.20;1.00
22426;DHT22;11380;50.822;15.790;2022-08-16T07:13:05;23.50;1.00
22426;DHT22;11380;50.822;15.790;2022-08-16T07:18:13;23.90;1.00
22426;DHT22;11380;50.822;15.790;2022-08-16T07:23:20;24.40;1.00
22426;DHT22;11380;50.822;15.790;2022-08-16T07:28:27;24.50;99.90
22426;DHT22;11380;50.822;15.790;2022-08-16T07:33:33;24.70;99.90
22426;DHT22;11380;50.822;15.790;2022-08-16T07:38:42;25.10;99.90
22426;DHT22;11380;50.822;15.790;2022-08-16T07:43:50;25.30;99.90
22426;DHT22;11380;50.822;15.790;2022-08-16T07:54:06;25.60;99.90
22426;DHT22;11380;50.822;15.790;2022-08-16T07:59:14;25.90;99.90
22426;DHT22;11380;50.822;15.790;2022-08-16T08:04:20;26.10;99.90
22426;DHT22;11380;50.822;15.790;2022-08-16T08:09:25;26.00;99.90
22426;DHT22;11380;50.822;15.790;2022-08-16T08:14:30;26.20;99.90
22426;DHT22;11380;50.822;15.790;2022-08-16T08:19:37;26.10;99.90
22426;DHT22;11380;50.822;15.790;2022-08-16T08:24:43;26.50;99.90
22426;DHT22;11380;50.822;15.790;2022-08-16T08:29:51;26.40;99.90
22426;DHT22;11380;50.822;15.790;2022-08-16T08:34:59;26.70;99.90
22426;DHT22;11380;50.822;15.790;2022-08-16T08:40:09;27.20;99.90
22426;DHT22;11380;50.822;15.790;2022-08-16T08:45:17;27.20;99.90
22426;DHT22;11380;50.822;15.790;2022-08-16T08:50:24;26.80;99.90
22426;DHT22;11380;50.822;15.790;2022-08-16T08:55:31;26.60;99.90
22426;DHT22;11380;50.822;15.790;2022-08-16T09:00:36;26.80;99.90
22426;DHT22;11380;50.822;15.790;2022-08-16T09:05:45;27.80;99.90
22426;DHT22;11380;50.822;15.790;2022-08-16T09:10:53;27.80;99.90
22426;DHT22;11380;50.822;15.790;2022-08-16T09:16:01;27.20;99.90
22426;DHT22;11380;50.822;15.790;2022-08-16T09:21:06;27.50;99.90
22426;DHT22;11380;50.822;15.790;2022-08-16T09:26:13;27.90;99.90
22426;DHT22;11380;50.822;15.790;2022-08-16T09:31:24;27.80;99.90
22426;DHT22;11380;50.822;15.790;2022-08-16T09:36:31;27.90;99.90
22426;DHT22;11380;50.822;15.790;2022-08-16T09:41:37;28.20;99.90
22426;DHT22;11380;50.822;15.790;2022-08-16T09:46:43;28.20;99.90
22426;DHT22;11380;50.822;15.790;2022-08-16T09:51:51;28.50;99.90
22426;DHT22;11380;50.822;15.790;2022-08-16T09:57:00;27.90;99.90
22426;DHT22;11380;50.822;15.790;2022-08-16T10:02:06;27.00;99.90
22426;DHT22;11380;50.822;15.790;2022-08-16T10:07:14;27.10;99.90
22426;DHT22;11380;50.822;15.790;2022-08-16T10:12:20;26.40;99.90
22426;DHT22;11380;50.822;15.790;2022-08-16T10:17:47;26.50;99.90
22426;DHT22;11380;50.822;15.790;2022-08-16T10:22:55;27.00;99.90
22426;DHT22;11380;50.822;15.790;2022-08-16T10:28:02;26.30;99.90
22426;DHT22;11380;50.822;15.790;2022-08-16T10:33:12;26.20;99.90
22426;DHT22;11380;50.822;15.790;2022-08-16T10:38:19;26.20;99.90
22426;DHT22;11380;50.822;15.790;2022-08-16T10:43:27;25.80;99.90
22426;DHT22;11380;50.822;15.790;2022-08-16T10:48:34;25.70;99.90
22426;DHT22;11380;50.822;15.790;2022-08-16T10:53:41;25.30;99.90
22426;DHT22;11380;50.822;15.790;2022-08-16T10:58:49;25.20;99.90
22426;DHT22;11380;50.822;15.790;2022-08-16T11:03:55;25.10;99.90
22426;DHT22;11380;50.822;15.790;2022-08-16T11:09:01;25.30;99.90
22426;DHT22;11380;50.822;15.790;2022-08-16T11:14:08;25.30;99.90
22426;DHT22;11380;50.822;15.790;2022-08-16T11:19:17;25.50;99.90
22426;DHT22;11380;50.822;15.790;2022-08-16T11:24:25;25.30;99.90
22426;DHT22;11380;50.822;15.790;2022-08-16T11:29:33;24.90;99.90
22426;DHT22;11380;50.822;15.790;2022-08-16T11:34:39;24.90;99.90
22426;DHT22;11380;50.822;15.790;2022-08-16T11:39:46;24.80;1.00
22426;DHT22;11380;50.822;15.790;2022-08-16T11:44:54;24.50;99.90
22426;DHT22;11380;50.822;15.790;2022-08-16T11:50:00;24.00;1.00
22426;DHT22;11380;50.822;15.790;2022-08-16T11:55:09;23.30;1.00
22426;DHT22;11380;50.822;15.790;2022-08-16T12:00:17;22.90;1.00
22426;DHT22;11380;50.822;15.790;2022-08-16T12:05:25;22.70;1.00
22426;DHT22;11380;50.822;15.790;2022-08-16T12:10:33;22.50;2.70
22426;DHT22;11380;50.822;15.790;2022-08-16T12:15:39;22.10;1.00
22426;DHT22;11380;50.822;15.790;2022-08-16T12:20:45;21.70;1.00
22426;DHT22;11380;50.822;15.790;2022-08-16T12:25:52;21.00;1.00
22426;DHT22;11380;50.822;15.790;2022-08-16T12:30:57;20.70;1.00
22426;DHT22;11380;50.822;15.790;2022-08-16T12:36:04;20.50;29.30
22426;DHT22;11380;50.822;15.790;2022-08-16T12:41:13;20.40;1.00
22426;DHT22;11380;50.822;15.790;2022-08-16T12:46:20;20.40;36.00
22426;DHT22;11380;50.822;15.790;2022-08-16T12:51:30;20.60;1.00
22426;DHT22;11380;50.822;15.790;2022-08-16T12:56:38;20.70;99.90
22426;DHT22;11380;50.822;15.790;2022-08-16T13:01:44;21.40;1.00
22426;DHT22;11380;50.822;15.790;2022-08-16T13:06:52;22.80;1.00
22426;DHT22;11380;50.822;15.790;2022-08-16T13:12:07;22.90;1.00
22426;DHT22;11380;50.822;15.790;2022-08-16T13:17:15;22.90;1.00
22426;DHT22;11380;50.822;15.790;2022-08-16T13:22:23;24.00;1.00
22426;DHT22;11380;50.822;15.790;2022-08-16T13:27:28;24.50;1.00
22426;DHT22;11380;50.822;15.790;2022-08-16T13:32:35;24.80;99.90
22426;DHT22;11380;50.822;15.790;2022-08-16T13:37:43;24.50;1.00
22426;DHT22;11380;50.822;15.790;2022-08-16T13:42:51;25.20;99.90
22426;DHT22;11380;50.822;15.790;2022-08-16T13:47:56;25.80;99.90
22426;DHT22;11380;50.822;15.790;2022-08-16T13:53:03;26.20;99.90
22426;DHT22;11380;50.822;15.790;2022-08-16T13:58:09;26.60;99.90
22426;DHT22;11380;50.822;15.790;2022-08-16T14:03:16;26.50;99.90
22426;DHT22;11380;50.822;15.790;2022-08-16T14:08:22;26.80;99.90
22426;DHT22;11380;50.822;15.790;2022-08-16T14:13:30;27.00;99.90
22426;DHT22;11380;50.822;15.790;2022-08-16T14:18:37;27.10;99.90
22426;DHT22;11380;50.822;15.790;2022-08-16T14:23:44;27.40;97.60
22426;DHT22;11380;50.822;15.790;2022-08-16T14:28:50;27.60;99.90
22426;DHT22;11380;50.822;15.790;2022-08-16T14:33:58;27.50;99.90
22426;DHT22;11380;50.822;15.790;2022-08-16T14:39:03;27.70;99.90
22426;DHT22;11380;50.822;15.790;2022-08-16T14:44:10;27.70;99.90
22426;DHT22;11380;50.822;15.790;2022-08-16T14:49:17;27.70;99.90
22426;DHT22;11380;50.822;15.790;2022-08-16T14:54:23;27.80;99.90
22426;DHT22;11380;50.822;15.790;2022-08-16T14:59:30;27.70;99.40
22426;DHT22;11380;50.822;15.790;2022-08-16T15:04:38;27.70;98.30
22426;DHT22;11380;50.822;15.790;2022-08-16T15:09:46;27.80;96.60
22426;DHT22;11380;50.822;15.790;2022-08-16T15:14:55;28.00;95.50
22426;DHT22;11380;50.822;15.790;2022-08-16T15:20:04;27.80;91.80
22426;DHT22;11380;50.822;15.790;2022-08-16T15:25:26;28.00;91.40
22426;DHT22;11380;50.822;15.790;2022-08-16T15:30:24;27.80;91.50
22426;DHT22;11380;50.822;15.790;2022-08-16T15:35:31;28.00;94.70
22426;DHT22;11380;50.822;15.790;2022-08-16T15:40:39;27.90;92.90
22426;DHT22;11380;50.822;15.790;2022-08-16T15:45:46;27.80;91.80
22426;DHT22;11380;50.822;15.790;2022-08-16T15:51:12;28.00;87.70
22426;DHT22;11380;50.822;15.790;2022-08-16T15:56:19;28.10;88.00
22426;DHT22;11380;50.822;15.790;2022-08-16T16:01:25;28.20;89.70
22426;DHT22;11380;50.822;15.790;2022-08-16T16:06:32;28.10;89.70
22426;DHT22;11380;50.822;15.790;2022-08-16T16:11:39;27.80;90.90
22426;DHT22;11380;50.822;15.790;2022-08-16T16:16:45;27.80;93.50
22426;DHT22;11380;50.822;15.790;2022-08-16T16:21:53;27.70;94.90
22426;DHT22;11380;50.822;15.790;2022-08-16T16:26:57;27.60;94.80
22426;DHT22;11380;50.822;15.790;2022-08-16T16:32:05;27.50;99.90
22426;DHT22;11380;50.822;15.790;2022-08-16T16:37:12;27.30;98.20
22426;DHT22;11380;50.822;15.790;2022-08-16T16:42:18;27.10;99.90
22426;DHT22;11380;50.822;15.790;2022-08-16T16:47:25;26.90;99.90
22426;DHT22;11380;50.822;15.790;2022-08-16T16:52:31;26.80;99.90
22426;DHT22;11380;50.822;15.790;2022-08-16T16:57:39;26.60;99.90
22426;DHT22;11380;50.822;15.790;2022-08-16T17:03:03;26.30;99.90
22426;DHT22;11380;50.822;15.790;2022-08-16T17:08:10;26.10;99.90
22426;DHT22;11380;50.822;15.790;2022-08-16T17:13:16;26.00;99.90
22426;DHT22;11380;50.822;15.790;2022-08-16T17:18:22;25.90;52.00
22426;DHT22;11380;50.822;15.790;2022-08-16T17:23:30;25.70;1.00
22426;DHT22;11380;50.822;15.790;2022-08-16T17:28:37;25.30;1.00
22426;DHT22;11380;50.822;15.790;2022-08-16T17:33:44;24.90;1.00
22426;DHT22;11380;50.822;15.790;2022-08-16T17:38:53;24.60;1.00
22426;DHT22;11380;50.822;15.790;2022-08-16T17:43:59;24.40;1.00
22426;DHT22;11380;50.822;15.790;2022-08-16T17:49:05;24.00;1.00
22426;DHT22;11380;50.822;15.790;2022-08-16T17:54:11;23.70;1.00
22426;DHT22;11380;50.822;15.790;2022-08-16T17:59:18;23.40;1.00
22426;DHT22;11380;50.822;15.790;2022-08-16T18:04:26;23.30;1.00
22426;DHT22;11380;50.822;15.790;2022-08-16T18:09:33;23.10;1.00
22426;DHT22;11380;50.822;15.790;2022-08-16T18:14:39;22.80;1.00
22426;DHT22;11380;50.822;15.790;2022-08-16T18:19:46;22.70;1.00
22426;DHT22;11380;50.822;15.790;2022-08-16T18:24:52;22.50;1.00
22426;DHT22;11380;50.822;15.790;2022-08-16T18:29:59;22.40;1.00
22426;DHT22;11380;50.822;15.790;2022-08-16T18:35:05;22.30;1.00
22426;DHT22;11380;50.822;15.790;2022-08-16T18:40:11;22.20;1.00
22426;DHT22;11380;50.822;15.790;2022-08-16T18:45:17;22.10;1.00
22426;DHT22;11380;50.822;15.790;2022-08-16T18:50:25;22.00;1.00
22426;DHT22;11380;50.822;15.790;2022-08-16T18:55:35;21.90;1.00
22426;DHT22;11380;50.822;15.790;2022-08-16T19:00:45;21.90;1.00
22426;DHT22;11380;50.822;15.790;2022-08-16T19:06:04;21.90;1.00
22426;DHT22;11380;50.822;15.790;2022-08-16T19:11:15;21.70;1.00
22426;DHT22;11380;50.822;15.790;2022-08-16T19:16:25;21.70;1.00
22426;DHT22;11380;50.822;15.790;2022-08-16T19:21:31;21.50;1.00
22426;DHT22;11380;50.822;15.790;2022-08-16T19:26:37;20.50;1.00
22426;DHT22;11380;50.822;15.790;2022-08-16T19:31:44;20.50;1.00
22426;DHT22;11380;50.822;15.790;2022-08-16T19:36:49;20.70;1.00
22426;DHT22;11380;50.822;15.790;2022-08-16T19:41:55;21.00;1.00
22426;DHT22;11380;50.822;15.790;2022-08-16T19:47:00;20.70;1.00
22426;DHT22;11380;50.822;15.790;2022-08-16T19:52:18;20.90;1.00
22426;DHT22;11380;50.822;15.790;2022-08-16T19:57:25;20.60;1.00
22426;DHT22;11380;50.822;15.790;2022-08-16T20:02:32;20.60;1.00
22426;DHT22;11380;50.822;15.790;2022-08-16T20:07:40;20.50;1.00
22426;DHT22;11380;50.822;15.790;2022-08-16T20:12:46;20.70;1.00
22426;DHT22;11380;50.822;15.790;2022-08-16T20:17:53;20.40;1.00
22426;DHT22;11380;50.822;15.790;2022-08-16T20:23:00;20.50;1.00
22426;DHT22;11380;50.822;15.790;2022-08-16T20:28:06;20.20;1.00
22426;DHT22;11380;50.822;15.790;2022-08-16T20:33:12;20.20;1.00
22426;DHT22;11380;50.822;15.790;2022-08-16T20:38:19;19.90;1.00
22426;DHT22;11380;50.822;15.790;2022-08-16T20:43:25;19.80;1.00
22426;DHT22;11380;50.822;15.790;2022-08-16T20:48:31;19.00;1.00
22426;DHT22;11380;50.822;15.790;2022-08-16T20:53:42;18.90;23.60
22426;DHT22;11380;50.822;15.790;2022-08-16T20:58:43;18.60;76.30
22426;DHT22;11380;50.822;15.790;2022-08-16T21:03:49;18.60;19.60
22426;DHT22;11380;50.822;15.790;2022-08-16T21:08:54;18.80;1.00
22426;DHT22;11380;50.822;15.790;2022-08-16T21:14:01;18.70;1.00
22426;DHT22;11380;50.822;15.790;2022-08-16T21:19:06;18.60;1.00
22426;DHT22;11380;50.822;15.790;2022-08-16T21:24:13;18.80;1.00
22426;DHT22;11380;50.822;15.790;2022-08-16T21:29:19;19.10;1.00
22426;DHT22;11380;50.822;15.790;2022-08-16T21:34:27;18.80;1.00
22426;DHT22;11380;50.822;15.790;2022-08-16T21:39:33;18.90;1.00
22426;DHT22;11380;50.822;15.790;2022-08-16T21:44:41;18.80;1.00
22426;DHT22;11380;50.822;15.790;2022-08-16T21:49:47;18.60;1.00
22426;DHT22;11380;50.822;15.790;2022-08-16T21:54:53;18.30;69.50
22426;DHT22;11380;50.822;15.790;2022-08-16T21:59:59;17.70;99.90
22426;DHT22;11380;50.822;15.790;2022-08-16T22:05:07;17.70;99.90
22426;DHT22;11380;50.822;15.790;2022-08-16T22:10:13;18.20;99.90
22426;DHT22;11380;50.822;15.790;2022-08-16T22:15:22;18.20;74.90
22426;DHT22;11380;50.822;15.790;2022-08-16T22:20:30;18.00;73.20
22426;DHT22;11380;50.822;15.790;2022-08-16T22:25:41;17.70;99.90
22426;DHT22;11380;50.822;15.790;2022-08-16T22:30:48;17.90;99.90
22426;DHT22;11380;50.822;15.790;2022-08-16T22:35:57;18.00;99.90
22426;DHT22;11380;50.822;15.790;2022-08-16T22:41:04;18.00;99.90
22426;DHT22;11380;50.822;15.790;2022-08-16T22:46:10;18.20;99.90
22426;DHT22;11380;50.822;15.790;2022-08-16T22:51:16;18.00;99.90
22426;DHT22;11380;50.822;15.790;2022-08-16T22:56:23;17.80;99.90
22426;DHT22;11380;50.822;15.790;2022-08-16T23:01:28;18.00;97.00
22426;DHT22;11380;50.822;15.790;2022-08-16T23:06:35;18.00;29.50
22426;DHT22;11380;50.822;15.790;2022-08-16T23:11:40;18.00;24.00
22426;DHT22;11380;50.822;15.790;2022-08-16T23:16:45;17.90;1.60
22426;DHT22;11380;50.822;15.790;2022-08-16T23:21:51;17.60;29.90
22426;DHT22;11380;50.822;15.790;2022-08-16T23:26:57;17.60;99.90
22426;DHT22;11380;50.822;15.790;2022-08-16T23:32:13;17.60;96.00
22426;DHT22;11380;50.822;15.790;2022-08-16T23:37:12;17.60;99.30
22426;DHT22;11380;50.822;15.790;2022-08-16T23:42:18;17.20;94.50
22426;DHT22;11380;50.822;15.790;2022-08-16T23:47:26;17.20;99.90
22426;DHT22;11380;50.822;15.790;2022-08-16T23:52:32;17.40;99.90
22426;DHT22;11380;50.822;15.790;2022-08-16T23:57:40;17.30;99.90
